sensor_id;sensor_type;location;lat;lon;timestamp;P1;durP1;ratioP1;P2;durP2;ratioP2
8293;SDS011;4185;41.506;24.938;2023-03-11T00:00:39;10.43;;;6.60;;
8293;SDS011;4185;41.506;24.938;2023-03-11T00:03:08;7.60;;;6.27;;
8293;SDS011;4185;41.506;24.938;2023-03-11T00:05:38;6.67;;;4.70;;
8293;SDS011;4185;41.506;24.938;2023-03-11T00:08:06;7.07;;;5.40;;
8293;SDS011;4185;41.506;24.938;2023-03-11T00:10:35;12.40;;;8.40;;
8293;SDS011;4185;41.506;24.938;2023-03-11T00:13:03;4.73;;;3.63;;
8293;SDS011;4185;41.506;24.938;2023-03-11T00:15:31;4.27;;;3.57;;
8293;SDS011;4185;41.506;24.938;2023-03-11T00:18:00;4.60;;;3.33;;
8293;SDS011;4185;41.506;24.938;2023-03-11T00:20:31;2.77;;;2.20;;
8293;SDS011;4185;41.506;24.938;2023-03-11T00:23:00;2.03;;;1.90;;
8293;SDS011;4185;41.506;24.938;2023-03-11T00:25:28;2.57;;;2.37;;
8293;SDS011;4185;41.506;24.938;2023-03-11T00:27:56;2.73;;;2.13;;
8293;SDS011;4185;41.506;24.938;2023-03-11T00:30:23;2.23;;;1.90;;
8293;SDS011;4185;41.506;24.938;2023-03-11T00:32:51;2.17;;;2.00;;
8293;SDS011;4185;41.506;24.938;2023-03-11T00:35:21;2.93;;;2.27;;
8293;SDS011;4185;41.506;24.938;2023-03-11T00:37:52;2.07;;;1.83;;
8293;SDS011;4185;41.506;24.938;2023-03-11T00:40:22;2.47;;;2.20;;
8293;SDS011;4185;41.506;24.938;2023-03-11T00:42:50;2.20;;;2.00;;
8293;SDS011;4185;41.506;24.938;2023-03-11T00:45:17;2.07;;;1.97;;
8293;SDS011;4185;41.506;24.938;2023-03-11T00:47:44;2.90;;;2.10;;
8293;SDS011;4185;41.506;24.938;2023-03-11T00:50:12;3.07;;;2.57;;
8293;SDS011;4185;41.506;24.938;2023-03-11T00:52:42;2.90;;;2.50;;
8293;SDS011;4185;41.506;24.938;2023-03-11T00:55:10;3.60;;;2.20;;
8293;SDS011;4185;41.506;24.938;2023-03-11T00:57:40;2.27;;;1.93;;
8293;SDS011;4185;41.506;24.938;2023-03-11T01:00:07;2.17;;;2.00;;
8293;SDS011;4185;41.506;24.938;2023-03-11T01:02:36;2.30;;;2.20;;
8293;SDS011;4185;41.506;24.938;2023-03-11T01:05:03;3.43;;;2.20;;
8293;SDS011;4185;41.506;24.938;2023-03-11T01:07:31;3.33;;;2.10;;
8293;SDS011;4185;41.506;24.938;2023-03-11T01:09:58;2.57;;;2.33;;
8293;SDS011;4185;41.506;24.938;2023-03-11T01:12:26;2.47;;;2.27;;
8293;SDS011;4185;41.506;24.938;2023-03-11T01:14:53;2.77;;;2.10;;
8293;SDS011;4185;41.506;24.938;2023-03-11T01:17:20;2.27;;;2.07;;
8293;SDS011;4185;41.506;24.938;2023-03-11T01:19:47;2.03;;;1.90;;
8293;SDS011;4185;41.506;24.938;2023-03-11T01:22:14;3.60;;;2.50;;
8293;SDS011;4185;41.506;24.938;2023-03-11T01:24:41;2.03;;;1.83;;
8293;SDS011;4185;41.506;24.938;2023-03-11T01:27:08;2.97;;;2.37;;
8293;SDS011;4185;41.506;24.938;2023-03-11T01:29:36;3.67;;;3.27;;
8293;SDS011;4185;41.506;24.938;2023-03-11T01:32:03;2.67;;;2.47;;
8293;SDS011;4185;41.506;24.938;2023-03-11T01:34:30;2.83;;;2.53;;
8293;SDS011;4185;41.506;24.938;2023-03-11T01:36:59;2.30;;;2.10;;
8293;SDS011;4185;41.506;24.938;2023-03-11T01:39:26;2.67;;;2.47;;
8293;SDS011;4185;41.506;24.938;2023-03-11T01:41:53;3.00;;;2.70;;
8293;SDS011;4185;41.506;24.938;2023-03-11T01:44:21;3.00;;;2.50;;
8293;SDS011;4185;41.506;24.938;2023-03-11T01:49:53;3.60;;;2.90;;
8293;SDS011;4185;41.506;24.938;2023-03-11T01:52:20;2.80;;;2.43;;
8293;SDS011;4185;41.506;24.938;2023-03-11T01:54:47;3.97;;;2.70;;
8293;SDS011;4185;41.506;24.938;2023-03-11T01:57:13;6.00;;;3.00;;
8293;SDS011;4185;41.506;24.938;2023-03-11T01:59:41;4.90;;;2.87;;
8293;SDS011;4185;41.506;24.938;2023-03-11T02:02:13;4.03;;;2.60;;
8293;SDS011;4185;41.506;24.938;2023-03-11T02:04:44;3.63;;;2.50;;
8293;SDS011;4185;41.506;24.938;2023-03-11T02:07:13;7.17;;;3.40;;
8293;SDS011;4185;41.506;24.938;2023-03-11T02:09:40;5.33;;;3.80;;
8293;SDS011;4185;41.506;24.938;2023-03-11T02:12:08;4.10;;;2.90;;
8293;SDS011;4185;41.506;24.938;2023-03-11T02:14:36;3.67;;;2.70;;
8293;SDS011;4185;41.506;24.938;2023-03-11T02:17:08;2.73;;;2.53;;
8293;SDS011;4185;41.506;24.938;2023-03-11T02:19:37;3.77;;;2.93;;
8293;SDS011;4185;41.506;24.938;2023-03-11T02:22:16;3.07;;;2.87;;
8293;SDS011;4185;41.506;24.938;2023-03-11T02:24:44;4.10;;;2.60;;
8293;SDS011;4185;41.506;24.938;2023-03-11T02:27:17;5.90;;;3.67;;
8293;SDS011;4185;41.506;24.938;2023-03-11T02:29:47;4.17;;;3.77;;
8293;SDS011;4185;41.506;24.938;2023-03-11T02:32:16;4.03;;;3.53;;
8293;SDS011;4185;41.506;24.938;2023-03-11T02:34:44;4.17;;;3.77;;
8293;SDS011;4185;41.506;24.938;2023-03-11T02:37:11;4.77;;;3.60;;
8293;SDS011;4185;41.506;24.938;2023-03-11T02:39:40;3.43;;;2.97;;
8293;SDS011;4185;41.506;24.938;2023-03-11T02:42:09;3.77;;;3.47;;
8293;SDS011;4185;41.506;24.938;2023-03-11T02:44:41;4.20;;;3.00;;
8293;SDS011;4185;41.506;24.938;2023-03-11T02:47:10;4.33;;;3.47;;
8293;SDS011;4185;41.506;24.938;2023-03-11T02:49:37;5.67;;;3.70;;
8293;SDS011;4185;41.506;24.938;2023-03-11T02:52:05;4.50;;;3.63;;
8293;SDS011;4185;41.506;24.938;2023-03-11T02:54:31;4.07;;;3.70;;
8293;SDS011;4185;41.506;24.938;2023-03-11T02:56:58;3.93;;;3.47;;
8293;SDS011;4185;41.506;24.938;2023-03-11T02:59:25;4.37;;;3.60;;
8293;SDS011;4185;41.506;24.938;2023-03-11T03:01:53;4.20;;;3.80;;
8293;SDS011;4185;41.506;24.938;2023-03-11T03:04:20;4.77;;;3.47;;
8293;SDS011;4185;41.506;24.938;2023-03-11T03:06:47;4.30;;;3.60;;
8293;SDS011;4185;41.506;24.938;2023-03-11T03:09:13;3.80;;;3.40;;
8293;SDS011;4185;41.506;24.938;2023-03-11T03:11:40;4.17;;;3.60;;
8293;SDS011;4185;41.506;24.938;2023-03-11T03:14:07;4.03;;;3.27;;
8293;SDS011;4185;41.506;24.938;2023-03-11T03:16:34;3.73;;;3.43;;
8293;SDS011;4185;41.506;24.938;2023-03-11T03:19:02;5.43;;;3.90;;
8293;SDS011;4185;41.506;24.938;2023-03-11T03:21:29;7.73;;;4.67;;
8293;SDS011;4185;41.506;24.938;2023-03-11T03:23:56;7.07;;;4.93;;
8293;SDS011;4185;41.506;24.938;2023-03-11T03:26:23;6.83;;;4.40;;
8293;SDS011;4185;41.506;24.938;2023-03-11T03:28:50;4.87;;;4.40;;
8293;SDS011;4185;41.506;24.938;2023-03-11T03:31:16;4.70;;;4.00;;
8293;SDS011;4185;41.506;24.938;2023-03-11T03:33:43;5.63;;;3.67;;
8293;SDS011;4185;41.506;24.938;2023-03-11T03:36:12;3.40;;;3.00;;
8293;SDS011;4185;41.506;24.938;2023-03-11T03:38:40;4.00;;;2.67;;
8293;SDS011;4185;41.506;24.938;2023-03-11T03:41:07;4.20;;;2.30;;
8293;SDS011;4185;41.506;24.938;2023-03-11T03:43:34;2.07;;;1.87;;
8293;SDS011;4185;41.506;24.938;2023-03-11T03:46:02;2.50;;;2.30;;
8293;SDS011;4185;41.506;24.938;2023-03-11T03:48:30;2.17;;;1.97;;
8293;SDS011;4185;41.506;24.938;2023-03-11T03:51:01;2.60;;;1.77;;
8293;SDS011;4185;41.506;24.938;2023-03-11T03:53:30;1.90;;;1.73;;
8293;SDS011;4185;41.506;24.938;2023-03-11T03:56:00;2.13;;;1.97;;
8293;SDS011;4185;41.506;24.938;2023-03-11T03:58:28;4.27;;;3.80;;
8293;SDS011;4185;41.506;24.938;2023-03-11T04:00:55;3.03;;;2.73;;
8293;SDS011;4185;41.506;24.938;2023-03-11T04:03:22;2.27;;;2.17;;
8293;SDS011;4185;41.506;24.938;2023-03-11T04:05:49;2.73;;;2.20;;
8293;SDS011;4185;41.506;24.938;2023-03-11T04:08:15;1.80;;;1.70;;
8293;SDS011;4185;41.506;24.938;2023-03-11T04:10:44;1.70;;;1.60;;
8293;SDS011;4185;41.506;24.938;2023-03-11T04:13:11;1.30;;;1.27;;
8293;SDS011;4185;41.506;24.938;2023-03-11T04:15:37;3.10;;;1.70;;
8293;SDS011;4185;41.506;24.938;2023-03-11T04:18:04;4.37;;;2.70;;
8293;SDS011;4185;41.506;24.938;2023-03-11T04:20:31;3.70;;;2.60;;
8293;SDS011;4185;41.506;24.938;2023-03-11T04:22:58;4.47;;;2.50;;
8293;SDS011;4185;41.506;24.938;2023-03-11T04:25:24;4.90;;;3.10;;
8293;SDS011;4185;41.506;24.938;2023-03-11T04:27:52;4.20;;;2.97;;
8293;SDS011;4185;41.506;24.938;2023-03-11T04:30:19;2.60;;;2.17;;
8293;SDS011;4185;41.506;24.938;2023-03-11T04:32:46;4.73;;;1.87;;
8293;SDS011;4185;41.506;24.938;2023-03-11T04:35:13;2.40;;;2.20;;
8293;SDS011;4185;41.506;24.938;2023-03-11T04:37:39;2.13;;;1.90;;
8293;SDS011;4185;41.506;24.938;2023-03-11T04:40:07;4.13;;;2.70;;
8293;SDS011;4185;41.506;24.938;2023-03-11T04:42:35;1.97;;;1.70;;
8293;SDS011;4185;41.506;24.938;2023-03-11T04:45:05;2.27;;;1.90;;
8293;SDS011;4185;41.506;24.938;2023-03-11T04:47:32;5.67;;;4.13;;
8293;SDS011;4185;41.506;24.938;2023-03-11T04:49:59;3.57;;;3.17;;
8293;SDS011;4185;41.506;24.938;2023-03-11T04:52:26;2.97;;;2.67;;
8293;SDS011;4185;41.506;24.938;2023-03-11T04:54:53;5.83;;;4.53;;
8293;SDS011;4185;41.506;24.938;2023-03-11T04:57:20;7.77;;;5.47;;
8293;SDS011;4185;41.506;24.938;2023-03-11T04:59:46;8.10;;;5.50;;
8293;SDS011;4185;41.506;24.938;2023-03-11T05:02:15;4.90;;;4.27;;
8293;SDS011;4185;41.506;24.938;2023-03-11T05:04:41;5.80;;;4.47;;
8293;SDS011;4185;41.506;24.938;2023-03-11T05:07:09;5.77;;;4.70;;
8293;SDS011;4185;41.506;24.938;2023-03-11T05:09:36;5.93;;;4.50;;
8293;SDS011;4185;41.506;24.938;2023-03-11T05:12:03;5.37;;;3.83;;
8293;SDS011;4185;41.506;24.938;2023-03-11T05:14:30;10.77;;;6.53;;
8293;SDS011;4185;41.506;24.938;2023-03-11T05:16:57;18.13;;;11.77;;
8293;SDS011;4185;41.506;24.938;2023-03-11T05:19:25;22.80;;;11.77;;
8293;SDS011;4185;41.506;24.938;2023-03-11T05:21:59;11.07;;;8.17;;
8293;SDS011;4185;41.506;24.938;2023-03-11T05:24:26;10.87;;;6.97;;
8293;SDS011;4185;41.506;24.938;2023-03-11T05:26:53;7.20;;;5.37;;
8293;SDS011;4185;41.506;24.938;2023-03-11T05:29:20;8.73;;;5.40;;
8293;SDS011;4185;41.506;24.938;2023-03-11T05:31:47;10.07;;;7.47;;
8293;SDS011;4185;41.506;24.938;2023-03-11T05:34:14;29.60;;;21.00;;
8293;SDS011;4185;41.506;24.938;2023-03-11T05:36:43;13.53;;;9.63;;
8293;SDS011;4185;41.506;24.938;2023-03-11T05:39:10;10.80;;;7.67;;
8293;SDS011;4185;41.506;24.938;2023-03-11T05:41:37;11.67;;;8.77;;
8293;SDS011;4185;41.506;24.938;2023-03-11T05:44:04;8.90;;;7.07;;
8293;SDS011;4185;41.506;24.938;2023-03-11T05:46:31;18.27;;;10.87;;
8293;SDS011;4185;41.506;24.938;2023-03-11T05:48:58;15.67;;;11.00;;
8293;SDS011;4185;41.506;24.938;2023-03-11T05:51:25;15.90;;;10.90;;
8293;SDS011;4185;41.506;24.938;2023-03-11T05:53:53;12.33;;;9.43;;
8293;SDS011;4185;41.506;24.938;2023-03-11T05:56:21;13.80;;;9.57;;
8293;SDS011;4185;41.506;24.938;2023-03-11T05:58:48;30.07;;;17.33;;
8293;SDS011;4185;41.506;24.938;2023-03-11T06:01:16;34.07;;;19.20;;
8293;SDS011;4185;41.506;24.938;2023-03-11T06:03:44;23.87;;;15.40;;
8293;SDS011;4185;41.506;24.938;2023-03-11T06:06:11;16.47;;;11.20;;
8293;SDS011;4185;41.506;24.938;2023-03-11T06:08:38;7.30;;;6.60;;
8293;SDS011;4185;41.506;24.938;2023-03-11T06:11:11;13.30;;;9.57;;
8293;SDS011;4185;41.506;24.938;2023-03-11T06:13:38;18.77;;;12.60;;
8293;SDS011;4185;41.506;24.938;2023-03-11T06:16:05;18.00;;;11.83;;
8293;SDS011;4185;41.506;24.938;2023-03-11T06:18:33;18.37;;;13.00;;
8293;SDS011;4185;41.506;24.938;2023-03-11T06:21:00;37.30;;;28.13;;
8293;SDS011;4185;41.506;24.938;2023-03-11T06:23:28;35.67;;;30.10;;
8293;SDS011;4185;41.506;24.938;2023-03-11T06:25:55;56.23;;;41.60;;
8293;SDS011;4185;41.506;24.938;2023-03-11T06:28:24;18.70;;;14.73;;
8293;SDS011;4185;41.506;24.938;2023-03-11T06:30:52;20.33;;;14.33;;
8293;SDS011;4185;41.506;24.938;2023-03-11T06:33:21;23.43;;;15.70;;
8293;SDS011;4185;41.506;24.938;2023-03-11T06:35:55;21.67;;;15.67;;
8293;SDS011;4185;41.506;24.938;2023-03-11T06:38:23;26.23;;;18.70;;
8293;SDS011;4185;41.506;24.938;2023-03-11T06:40:49;25.07;;;17.43;;
8293;SDS011;4185;41.506;24.938;2023-03-11T06:43:17;23.60;;;16.23;;
8293;SDS011;4185;41.506;24.938;2023-03-11T06:45:45;20.87;;;13.90;;
8293;SDS011;4185;41.506;24.938;2023-03-11T06:48:12;51.90;;;29.97;;
8293;SDS011;4185;41.506;24.938;2023-03-11T06:50:39;31.80;;;23.03;;
8293;SDS011;4185;41.506;24.938;2023-03-11T06:53:05;22.77;;;16.10;;
8293;SDS011;4185;41.506;24.938;2023-03-11T06:55:32;18.70;;;12.27;;
8293;SDS011;4185;41.506;24.938;2023-03-11T06:57:59;10.47;;;7.60;;
8293;SDS011;4185;41.506;24.938;2023-03-11T07:00:26;18.93;;;12.97;;
8293;SDS011;4185;41.506;24.938;2023-03-11T07:02:56;16.67;;;11.83;;
8293;SDS011;4185;41.506;24.938;2023-03-11T07:05:23;18.10;;;11.57;;
8293;SDS011;4185;41.506;24.938;2023-03-11T07:07:52;15.60;;;10.50;;
8293;SDS011;4185;41.506;24.938;2023-03-11T07:10:19;11.53;;;8.33;;
8293;SDS011;4185;41.506;24.938;2023-03-11T07:12:46;12.63;;;7.47;;
8293;SDS011;4185;41.506;24.938;2023-03-11T07:15:13;10.37;;;7.40;;
8293;SDS011;4185;41.506;24.938;2023-03-11T07:17:40;9.77;;;7.73;;
8293;SDS011;4185;41.506;24.938;2023-03-11T07:20:09;8.20;;;7.40;;
8293;SDS011;4185;41.506;24.938;2023-03-11T07:22:36;6.67;;;4.50;;
8293;SDS011;4185;41.506;24.938;2023-03-11T07:25:03;13.67;;;7.60;;
8293;SDS011;4185;41.506;24.938;2023-03-11T07:27:31;9.80;;;7.50;;
8293;SDS011;4185;41.506;24.938;2023-03-11T07:29:59;14.50;;;12.43;;
8293;SDS011;4185;41.506;24.938;2023-03-11T07:32:26;15.27;;;8.03;;
8293;SDS011;4185;41.506;24.938;2023-03-11T07:34:52;8.97;;;6.43;;
8293;SDS011;4185;41.506;24.938;2023-03-11T07:37:21;6.07;;;5.10;;
8293;SDS011;4185;41.506;24.938;2023-03-11T07:39:48;8.07;;;7.00;;
8293;SDS011;4185;41.506;24.938;2023-03-11T07:42:15;10.03;;;6.23;;
8293;SDS011;4185;41.506;24.938;2023-03-11T07:44:42;16.60;;;8.73;;
8293;SDS011;4185;41.506;24.938;2023-03-11T07:47:08;39.20;;;16.43;;
8293;SDS011;4185;41.506;24.938;2023-03-11T07:49:35;59.37;;;24.93;;
8293;SDS011;4185;41.506;24.938;2023-03-11T07:52:02;33.60;;;14.47;;
8293;SDS011;4185;41.506;24.938;2023-03-11T07:54:30;53.43;;;22.70;;
8293;SDS011;4185;41.506;24.938;2023-03-11T07:56:57;69.03;;;30.73;;
8293;SDS011;4185;41.506;24.938;2023-03-11T07:59:24;46.90;;;22.77;;
8293;SDS011;4185;41.506;24.938;2023-03-11T08:01:50;38.03;;;21.33;;
8293;SDS011;4185;41.506;24.938;2023-03-11T08:04:17;23.23;;;15.20;;
8293;SDS011;4185;41.506;24.938;2023-03-11T08:06:45;9.60;;;6.60;;
8293;SDS011;4185;41.506;24.938;2023-03-11T08:09:13;18.70;;;10.80;;
8293;SDS011;4185;41.506;24.938;2023-03-11T08:11:42;2.93;;;2.60;;
8293;SDS011;4185;41.506;24.938;2023-03-11T08:14:09;2.43;;;2.23;;
8293;SDS011;4185;41.506;24.938;2023-03-11T08:16:36;5.70;;;4.50;;
8293;SDS011;4185;41.506;24.938;2023-03-11T08:19:04;3.03;;;2.37;;
8293;SDS011;4185;41.506;24.938;2023-03-11T08:21:31;1.90;;;1.80;;
8293;SDS011;4185;41.506;24.938;2023-03-11T08:23:59;1.90;;;1.80;;
8293;SDS011;4185;41.506;24.938;2023-03-11T08:26:27;2.10;;;1.80;;
8293;SDS011;4185;41.506;24.938;2023-03-11T08:28:55;1.53;;;1.43;;
8293;SDS011;4185;41.506;24.938;2023-03-11T08:31:24;2.30;;;2.10;;
8293;SDS011;4185;41.506;24.938;2023-03-11T08:33:53;2.83;;;2.63;;
8293;SDS011;4185;41.506;24.938;2023-03-11T08:36:22;3.50;;;3.20;;
8293;SDS011;4185;41.506;24.938;2023-03-11T08:38:48;4.13;;;3.33;;
8293;SDS011;4185;41.506;24.938;2023-03-11T08:41:15;4.80;;;2.40;;
8293;SDS011;4185;41.506;24.938;2023-03-11T08:43:42;5.43;;;3.57;;
8293;SDS011;4185;41.506;24.938;2023-03-11T08:46:12;1.70;;;1.60;;
8293;SDS011;4185;41.506;24.938;2023-03-11T08:48:41;1.57;;;1.40;;
8293;SDS011;4185;41.506;24.938;2023-03-11T08:51:08;8.80;;;5.10;;
8293;SDS011;4185;41.506;24.938;2023-03-11T08:53:36;4.13;;;2.83;;
8293;SDS011;4185;41.506;24.938;2023-03-11T08:56:03;1.83;;;1.60;;
8293;SDS011;4185;41.506;24.938;2023-03-11T08:58:30;3.13;;;2.77;;
8293;SDS011;4185;41.506;24.938;2023-03-11T09:00:57;1.03;;;1.03;;
8293;SDS011;4185;41.506;24.938;2023-03-11T09:03:25;1.50;;;1.40;;
8293;SDS011;4185;41.506;24.938;2023-03-11T09:05:56;2.60;;;2.40;;
8293;SDS011;4185;41.506;24.938;2023-03-11T09:08:24;1.80;;;1.70;;
8293;SDS011;4185;41.506;24.938;2023-03-11T09:10:51;1.80;;;1.70;;
8293;SDS011;4185;41.506;24.938;2023-03-11T09:13:17;1.50;;;1.40;;
8293;SDS011;4185;41.506;24.938;2023-03-11T09:15:44;1.67;;;1.57;;
8293;SDS011;4185;41.506;24.938;2023-03-11T09:18:11;1.70;;;1.60;;
8293;SDS011;4185;41.506;24.938;2023-03-11T09:20:40;1.27;;;1.17;;
8293;SDS011;4185;41.506;24.938;2023-03-11T09:23:08;1.53;;;1.43;;
8293;SDS011;4185;41.506;24.938;2023-03-11T09:25:37;1.37;;;1.30;;
8293;SDS011;4185;41.506;24.938;2023-03-11T09:28:04;1.50;;;1.40;;
8293;SDS011;4185;41.506;24.938;2023-03-11T09:30:31;1.00;;;1.00;;
8293;SDS011;4185;41.506;24.938;2023-03-11T09:32:58;1.60;;;1.50;;
8293;SDS011;4185;41.506;24.938;2023-03-11T09:35:25;3.33;;;3.03;;
8293;SDS011;4185;41.506;24.938;2023-03-11T09:37:53;1.77;;;1.67;;
8293;SDS011;4185;41.506;24.938;2023-03-11T09:40:20;1.37;;;1.27;;
8293;SDS011;4185;41.506;24.938;2023-03-11T09:42:53;1.03;;;0.93;;
8293;SDS011;4185;41.506;24.938;2023-03-11T09:45:30;1.40;;;1.30;;
8293;SDS011;4185;41.506;24.938;2023-03-11T09:48:06;1.33;;;1.27;;
8293;SDS011;4185;41.506;24.938;2023-03-11T09:50:42;1.40;;;1.30;;
8293;SDS011;4185;41.506;24.938;2023-03-11T09:53:20;1.50;;;1.40;;
8293;SDS011;4185;41.506;24.938;2023-03-11T09:55:52;1.13;;;1.13;;
8293;SDS011;4185;41.506;24.938;2023-03-11T09:58:26;1.17;;;1.17;;
8293;SDS011;4185;41.506;24.938;2023-03-11T10:01:02;1.20;;;1.10;;
8293;SDS011;4185;41.506;24.938;2023-03-11T10:03:34;1.47;;;1.37;;
8293;SDS011;4185;41.506;24.938;2023-03-11T10:06:06;1.33;;;1.27;;
8293;SDS011;4185;41.506;24.938;2023-03-11T10:08:42;1.37;;;1.30;;
8293;SDS011;4185;41.506;24.938;2023-03-11T10:11:15;2.20;;;1.30;;
8293;SDS011;4185;41.506;24.938;2023-03-11T10:13:55;1.10;;;1.10;;
8293;SDS011;4185;41.506;24.938;2023-03-11T10:16:32;4.93;;;3.57;;
8293;SDS011;4185;41.506;24.938;2023-03-11T10:19:06;1.40;;;1.30;;
8293;SDS011;4185;41.506;24.938;2023-03-11T10:21:43;2.13;;;1.30;;
8293;SDS011;4185;41.506;24.938;2023-03-11T10:24:28;1.10;;;1.00;;
8293;SDS011;4185;41.506;24.938;2023-03-11T10:27:08;1.10;;;1.00;;
8293;SDS011;4185;41.506;24.938;2023-03-11T10:29:44;1.00;;;1.00;;
8293;SDS011;4185;41.506;24.938;2023-03-11T10:32:18;1.27;;;1.17;;
8293;SDS011;4185;41.506;24.938;2023-03-11T10:34:50;1.30;;;1.20;;
8293;SDS011;4185;41.506;24.938;2023-03-11T10:37:23;2.13;;;1.90;;
8293;SDS011;4185;41.506;24.938;2023-03-11T10:39:53;1.90;;;1.70;;
8293;SDS011;4185;41.506;24.938;2023-03-11T10:42:20;1.03;;;1.03;;
8293;SDS011;4185;41.506;24.938;2023-03-11T10:44:50;0.80;;;0.80;;
8293;SDS011;4185;41.506;24.938;2023-03-11T10:47:17;2.20;;;2.00;;
8293;SDS011;4185;41.506;24.938;2023-03-11T10:49:47;1.70;;;1.10;;
8293;SDS011;4185;41.506;24.938;2023-03-11T10:52:14;0.93;;;0.93;;
8293;SDS011;4185;41.506;24.938;2023-03-11T10:54:41;1.60;;;1.50;;
8293;SDS011;4185;41.506;24.938;2023-03-11T10:57:22;1.83;;;1.13;;
8293;SDS011;4185;41.506;24.938;2023-03-11T10:59:51;1.23;;;1.13;;
8293;SDS011;4185;41.506;24.938;2023-03-11T11:02:23;0.90;;;0.90;;
8293;SDS011;4185;41.506;24.938;2023-03-11T11:05:02;0.80;;;0.80;;
8293;SDS011;4185;41.506;24.938;2023-03-11T11:07:33;1.00;;;1.00;;
8293;SDS011;4185;41.506;24.938;2023-03-11T11:10:15;0.90;;;0.90;;
8293;SDS011;4185;41.506;24.938;2023-03-11T11:12:51;1.03;;;1.03;;
8293;SDS011;4185;41.506;24.938;2023-03-11T11:15:20;1.83;;;0.87;;
8293;SDS011;4185;41.506;24.938;2023-03-11T11:17:48;1.17;;;1.00;;
8293;SDS011;4185;41.506;24.938;2023-03-11T11:20:15;1.63;;;0.90;;
8293;SDS011;4185;41.506;24.938;2023-03-11T11:22:46;1.00;;;1.00;;
8293;SDS011;4185;41.506;24.938;2023-03-11T11:25:23;1.97;;;1.33;;
8293;SDS011;4185;41.506;24.938;2023-03-11T11:27:57;2.33;;;2.13;;
8293;SDS011;4185;41.506;24.938;2023-03-11T11:30:25;1.70;;;1.60;;
8293;SDS011;4185;41.506;24.938;2023-03-11T11:32:53;6.40;;;4.43;;
8293;SDS011;4185;41.506;24.938;2023-03-11T11:35:23;5.47;;;4.27;;
8293;SDS011;4185;41.506;24.938;2023-03-11T11:37:51;4.67;;;3.37;;
8293;SDS011;4185;41.506;24.938;2023-03-11T11:40:23;4.20;;;3.80;;
8293;SDS011;4185;41.506;24.938;2023-03-11T11:42:56;1.20;;;1.10;;
8293;SDS011;4185;41.506;24.938;2023-03-11T11:45:33;1.60;;;1.50;;
8293;SDS011;4185;41.506;24.938;2023-03-11T11:48:04;1.67;;;1.10;;
8293;SDS011;4185;41.506;24.938;2023-03-11T11:50:40;1.63;;;1.30;;
8293;SDS011;4185;41.506;24.938;2023-03-11T11:53:12;1.97;;;1.30;;
8293;SDS011;4185;41.506;24.938;2023-03-11T11:55:50;1.10;;;1.00;;
8293;SDS011;4185;41.506;24.938;2023-03-11T11:58:20;1.87;;;1.77;;
8293;SDS011;4185;41.506;24.938;2023-03-11T12:00:57;0.93;;;0.93;;
8293;SDS011;4185;41.506;24.938;2023-03-11T12:03:38;1.13;;;1.13;;
8293;SDS011;4185;41.506;24.938;2023-03-11T12:06:19;1.50;;;1.20;;
8293;SDS011;4185;41.506;24.938;2023-03-11T12:08:53;0.90;;;0.90;;
8293;SDS011;4185;41.506;24.938;2023-03-11T12:11:33;1.90;;;1.20;;
8293;SDS011;4185;41.506;24.938;2023-03-11T12:14:08;0.90;;;0.90;;
8293;SDS011;4185;41.506;24.938;2023-03-11T12:16:45;2.57;;;2.20;;
8293;SDS011;4185;41.506;24.938;2023-03-11T12:19:19;1.43;;;1.27;;
8293;SDS011;4185;41.506;24.938;2023-03-11T12:22:14;1.20;;;1.10;;
8293;SDS011;4185;41.506;24.938;2023-03-11T12:24:56;1.87;;;1.77;;
8293;SDS011;4185;41.506;24.938;2023-03-11T12:27:35;1.60;;;1.20;;
8293;SDS011;4185;41.506;24.938;2023-03-11T12:30:11;2.20;;;2.00;;
8293;SDS011;4185;41.506;24.938;2023-03-11T12:32:42;1.53;;;1.20;;
8293;SDS011;4185;41.506;24.938;2023-03-11T12:35:18;1.60;;;1.50;;
8293;SDS011;4185;41.506;24.938;2023-03-11T12:37:54;1.97;;;1.30;;
8293;SDS011;4185;41.506;24.938;2023-03-11T12:43:23;1.43;;;1.33;;
8293;SDS011;4185;41.506;24.938;2023-03-11T12:46:15;1.50;;;1.40;;
8293;SDS011;4185;41.506;24.938;2023-03-11T12:48:43;2.03;;;1.37;;
8293;SDS011;4185;41.506;24.938;2023-03-11T12:51:37;1.83;;;1.40;;
8293;SDS011;4185;41.506;24.938;2023-03-11T12:56:49;1.77;;;1.67;;
8293;SDS011;4185;41.506;24.938;2023-03-11T12:59:33;3.97;;;3.63;;
8293;SDS011;4185;41.506;24.938;2023-03-11T13:02:24;1.17;;;1.07;;
8293;SDS011;4185;41.506;24.938;2023-03-11T13:05:10;1.23;;;1.13;;
8293;SDS011;4185;41.506;24.938;2023-03-11T13:07:47;1.30;;;1.20;;
8293;SDS011;4185;41.506;24.938;2023-03-11T13:10:20;1.47;;;1.37;;
8293;SDS011;4185;41.506;24.938;2023-03-11T13:13:00;2.30;;;1.67;;
8293;SDS011;4185;41.506;24.938;2023-03-11T13:15:29;1.30;;;1.20;;
8293;SDS011;4185;41.506;24.938;2023-03-11T13:18:13;1.80;;;1.70;;
8293;SDS011;4185;41.506;24.938;2023-03-11T13:20:52;1.40;;;1.30;;
8293;SDS011;4185;41.506;24.938;2023-03-11T13:23:22;1.20;;;1.10;;
8293;SDS011;4185;41.506;24.938;2023-03-11T13:32:03;1.20;;;1.10;;
8293;SDS011;4185;41.506;24.938;2023-03-11T13:34:56;0.90;;;0.90;;
8293;SDS011;4185;41.506;24.938;2023-03-11T13:37:33;0.90;;;0.90;;
8293;SDS011;4185;41.506;24.938;2023-03-11T13:40:12;1.00;;;1.00;;
8293;SDS011;4185;41.506;24.938;2023-03-11T13:42:49;1.00;;;1.00;;
8293;SDS011;4185;41.506;24.938;2023-03-11T13:45:22;1.80;;;1.00;;
8293;SDS011;4185;41.506;24.938;2023-03-11T13:47:53;5.80;;;5.17;;
8293;SDS011;4185;41.506;24.938;2023-03-11T13:50:27;5.77;;;4.03;;
8293;SDS011;4185;41.506;24.938;2023-03-11T13:52:57;4.37;;;3.73;;
8293;SDS011;4185;41.506;24.938;2023-03-11T13:55:27;2.40;;;2.10;;
8293;SDS011;4185;41.506;24.938;2023-03-11T13:57:59;3.17;;;2.23;;
8293;SDS011;4185;41.506;24.938;2023-03-11T14:00:26;1.47;;;1.37;;
8293;SDS011;4185;41.506;24.938;2023-03-11T14:02:55;4.30;;;3.70;;
8293;SDS011;4185;41.506;24.938;2023-03-11T14:05:25;2.50;;;1.97;;
8293;SDS011;4185;41.506;24.938;2023-03-11T14:07:55;3.40;;;2.60;;
8293;SDS011;4185;41.506;24.938;2023-03-11T14:10:37;15.67;;;9.57;;
8293;SDS011;4185;41.506;24.938;2023-03-11T14:13:15;4.63;;;3.23;;
8293;SDS011;4185;41.506;24.938;2023-03-11T14:15:44;38.23;;;22.20;;
8293;SDS011;4185;41.506;24.938;2023-03-11T14:18:23;6.13;;;3.60;;
8293;SDS011;4185;41.506;24.938;2023-03-11T14:20:54;4.30;;;2.40;;
8293;SDS011;4185;41.506;24.938;2023-03-11T14:23:21;1.47;;;1.37;;
8293;SDS011;4185;41.506;24.938;2023-03-11T14:25:56;5.40;;;4.00;;
8293;SDS011;4185;41.506;24.938;2023-03-11T14:28:31;10.57;;;6.40;;
8293;SDS011;4185;41.506;24.938;2023-03-11T14:31:01;4.43;;;3.10;;
8293;SDS011;4185;41.506;24.938;2023-03-11T14:33:29;25.50;;;12.37;;
8293;SDS011;4185;41.506;24.938;2023-03-11T14:35:58;5.27;;;2.80;;
8293;SDS011;4185;41.506;24.938;2023-03-11T14:38:28;2.93;;;1.97;;
8293;SDS011;4185;41.506;24.938;2023-03-11T14:40:56;6.27;;;4.30;;
8293;SDS011;4185;41.506;24.938;2023-03-11T14:43:24;9.50;;;5.10;;
8293;SDS011;4185;41.506;24.938;2023-03-11T14:45:54;12.50;;;9.13;;
8293;SDS011;4185;41.506;24.938;2023-03-11T14:48:23;9.17;;;5.90;;
8293;SDS011;4185;41.506;24.938;2023-03-11T14:50:54;1.43;;;1.33;;
8293;SDS011;4185;41.506;24.938;2023-03-11T14:53:25;2.40;;;2.20;;
8293;SDS011;4185;41.506;24.938;2023-03-11T14:55:55;4.47;;;3.40;;
8293;SDS011;4185;41.506;24.938;2023-03-11T14:58:25;5.00;;;4.00;;
8293;SDS011;4185;41.506;24.938;2023-03-11T15:00:59;10.10;;;8.27;;
8293;SDS011;4185;41.506;24.938;2023-03-11T15:03:30;5.90;;;4.93;;
8293;SDS011;4185;41.506;24.938;2023-03-11T15:05:59;3.80;;;3.07;;
8293;SDS011;4185;41.506;24.938;2023-03-11T15:08:34;4.93;;;3.83;;
8293;SDS011;4185;41.506;24.938;2023-03-11T15:11:07;4.43;;;3.23;;
8293;SDS011;4185;41.506;24.938;2023-03-11T15:13:44;3.37;;;3.07;;
8293;SDS011;4185;41.506;24.938;2023-03-11T15:16:22;24.13;;;12.43;;
8293;SDS011;4185;41.506;24.938;2023-03-11T15:18:53;4.50;;;3.03;;
8293;SDS011;4185;41.506;24.938;2023-03-11T15:21:20;4.27;;;3.30;;
8293;SDS011;4185;41.506;24.938;2023-03-11T15:23:51;3.03;;;2.73;;
8293;SDS011;4185;41.506;24.938;2023-03-11T15:26:22;5.40;;;3.23;;
8293;SDS011;4185;41.506;24.938;2023-03-11T15:28:54;2.50;;;2.30;;